ADDS METAR Data INFO
IDs: Format: Raw Decoded Include TAF

Data at: 0250 UTC 21 Jan 2018

KCRG 210153Z 00000KT 10SM FEW120 11/02 A3029 RMK AO2 SLP255 T01060022
KCRG 210053Z 00000KT 10SM CLR 11/03 A3028 RMK AO2 SLP253 T01060033
KCRG 202353Z 00000KT 10SM BKN120 12/03 A3026 RMK AO2 SLP247 T01170028 10167 20117 58001
KCRG 202253Z 14003KT 10SM CLR 13/02 A3027 RMK AO2 SLP251 T01330017
KCRG 202153Z 11004KT 10SM FEW120 14/02 A3026 RMK AO2 SLP247 T01440022
KCRG 202053Z 30003KT 10SM CLR 16/M04 A3026 RMK AO2 SLP248 T01611039 55009
KCRG 201953Z VRB03KT 10SM CLR 17/M03 A3025 RMK AO2 SLP242 T01671033
KCRG 201853Z 33003KT 10SM CLR 16/M04 A3027 RMK AO2 SLP250 T01611044
KCRG 201753Z 35004KT 10SM CLR 16/M03 A3029 RMK AO2 SLP257 T01611033 10167 20017 58015
KCRG 201653Z 34006KT 10SM CLR 17/M06 A3032 RMK AO2 SLP265 T01671056
KCRG 201553Z 00000KT 10SM CLR 15/M01 A3034 RMK AO2 SLP273 T01501011
KCRG 201453Z 36004KT 8SM CLR 12/00 A3033 RMK AO2 SLP271 T01170000 50016
KCRG 201353Z 33003KT 7SM CLR 08/04 A3034 RMK AO2 SLP272 T00830039
KCRG 201253Z 00000KT 7SM CLR 03/02 A3031 RMK AO2 SLP261 T00280017
KCRG 201153Z 32003KT 7SM CLR 02/02 A3029 RMK AO2 SLP256 T00220017 10028 20011 51006
KCRG 201053Z AUTO 33003KT 5SM BR CLR 02/01 A3029 RMK AO2 SLP255 T00170006
KCRG 200953Z AUTO 00000KT 5SM BR CLR 02/01 A3027 RMK AO2 SLP251 T00220006
KCRG 200853Z AUTO 00000KT 4SM BR CLR 02/01 A3027 RMK AO2 SLP249 T00170006 58001
KCRG 200753Z AUTO 00000KT 5SM BR CLR 02/01 A3028 RMK AO2 SLP253 T00220011
KCRG 200653Z AUTO 00000KT 5SM BR CLR 03/01 A3027 RMK AO2 SLP250 T00280006
KCRG 200553Z AUTO 00000KT 6SM BR CLR 03/01 A3027 RMK AO2 SLP251 T00280011 10089 20028 58008
KCRG 200453Z AUTO 00000KT 6SM BR CLR 03/01 A3028 RMK AO2 SLP254 T00330011 401611028
KCRG 200353Z 00000KT 7SM CLR 03/02 A3030 RMK AO2 SLP258 T00330017
KCRG 200253Z 00000KT 7SM CLR 04/01 A3030 RMK AO2 SLP259 T00440011 51010
KCRG 200153Z 00000KT 8SM CLR 05/02 A3029 RMK AO2 SLP255 T00500017
KCRG 200053Z 00000KT 8SM CLR 06/02 A3029 RMK AO2 SLP255 T00610017
KCRG 192353Z 00000KT 8SM CLR 08/M01 A3027 RMK AO2 SLP249 T00831006 10161 20083 53004
KCRG 192253Z 12003KT 8SM CLR 10/01 A3026 RMK AO2 SLP247 T01000006
KCRG 192153Z 10006KT 9SM CLR 14/01 A3025 RMK AO2 SLP244 T01390006
KCRG 192053Z 31006KT 10SM CLR 16/M08 A3026 RMK AO2 SLP245 T01611078 56021
KCRG 191953Z 31007KT 10SM CLR 16/M08 A3026 RMK AO2 SLP247 T01611078
KCRG 191853Z 25006KT 10SM CLR 15/M09 A3029 RMK AO2 SLP256 T01501089
KCRG 191753Z 31005KT 10SM CLR 14/M06 A3032 RMK AO2 SLP266 T01391061 10139 21028 58020
KCRG 191653Z 35006KT 8SM CLR 12/M06 A3035 RMK AO2 SLP275 T01221061
KCRG 191553Z 35004KT 7SM CLR 11/M06 A3037 RMK AO2 SLP284 T01061056
KCRG 191453Z 00000KT 4SM HZ CLR 08/M04 A3038 RMK AO2 SLP286 T00831044 53007